• Join FlightAware (Why Join?)
  • Login
  • US Flag 
05:11AM EDT


 

Airport Tracker/Info


-or-


 

Live Flight TrackerFlight Track Log ✈ SWA3937 ✈ 16.04.2013 ✈ KPHX - KLIT

Flight Track Log - Related Links

Times and Time Zones

All times are in EDT time to prevent confusion due to time zone crossing. See the SWA3937 flight status page for this flight to view local times or setup timezone preferences in your user account.

Time Position Orientation Groundspeed Altitude Reporting Facility
EDT Latitude Longitude Course Direction KTS MPH feet Rate Location/Type
02:58PM 33.4333 -112.0333 257° West 152 175 1,800  Level Phoenix TRACON
02:59PM 33.4167 -112.1167 257° West 214 246 4,600 1,980 Climbing Phoenix TRACON
03:00PM 33.3994 -112.1506 239° Southwest 220 253 6,000 1,980 Climbing Albuquerque Center
03:01PM 33.3267 -112.1322 168° South 265 305 8,000 1,440 Climbing Albuquerque Center
03:02PM 33.2739 -112.0667 134° Southeast 281 323 9,000 1,380 Climbing Albuquerque Center
03:03PM 33.2586 -111.9692 101° East 337 388 10,900 2,400 Climbing Albuquerque Center
03:04PM 33.3050 -111.8583 63° Northeast 376 433 14,000 2,820 Climbing Albuquerque Center
03:05PM 33.3533 -111.7403 64° Northeast 395 455 16,800 2,580 Climbing Albuquerque Center
03:06PM 33.4047 -111.6156 64° Northeast 417 480 19,400 2,580 Climbing Albuquerque Center
03:07PM 33.4697 -111.4583 64° Northeast 443 510 22,200 2,460 Climbing Albuquerque Center
03:08PM 33.5092 -111.3156 72° East 458 527 24,500 1,920 Climbing Albuquerque Center
03:09PM 33.5264 -111.1636 82° East 464 534 26,200 1,620 Climbing Albuquerque Center
03:10PM 33.5436 -111.0058 82° East 477 549 27,900 1,560 Climbing Albuquerque Center
03:11PM 33.5719 -110.8414 78° East 499 574 29,400 1,380 Climbing Albuquerque Center
03:12PM 33.6211 -110.6808 70° East 511 588 30,800 1,560 Climbing Albuquerque Center
03:13PM 33.6622 -110.4811 76° East 517 595 32,700 1,680 Climbing Albuquerque Center
03:14PM 33.6911 -110.3372 76° East 512 589 34,300 1,380 Climbing Albuquerque Center
03:15PM 33.7247 -110.1731 76° East 509 586 35,600 1,200 Climbing Albuquerque Center
03:16PM 33.7669 -109.9742 76° East 515 593 36,800 660 Climbing Albuquerque Center
03:17PM 33.8000 -109.8106 76° East 510 587 37,000 60 Climbing Albuquerque Center
03:18PM 33.8344 -109.6450 76° East 513 590 37,000  Level Albuquerque Center
03:19PM 33.8667 -109.4822 77° East 507 583 37,000  Level Albuquerque Center
03:20PM 33.8983 -109.3258 76° East 495 570 37,000  Level Albuquerque Center
03:21PM 33.9283 -109.1739 77° East 479 551 37,000  Level Albuquerque Center
03:22PM 33.9658 -108.9897 76° East 475 547 37,000  Level Albuquerque Center
03:23PM 33.9972 -108.8328 76° East 479 551 37,000  Level Albuquerque Center
03:24PM 34.0275 -108.6758 77° East 483 556 37,000  Level Albuquerque Center
03:25PM 34.0575 -108.5197 77° East 482 555 37,000  Level Albuquerque Center
03:27PM 34.0881 -108.3614 77° East 486 559 37,000  Level Albuquerque Center
03:28PM 34.1178 -108.2036 77° East 487 560 37,000  Level Albuquerque Center
03:29PM 34.1469 -108.0339 78° East 478 550 37,000  Level Albuquerque Center
03:30PM 34.1781 -107.8742 77° East 484 557 37,000  Level Albuquerque Center
03:31PM 34.2100 -107.7086 77° East 498 573 37,000  Level Albuquerque Center
03:32PM 34.2467 -107.5106 77° East 504 580 37,000  Level Albuquerque Center
03:33PM 34.2756 -107.3472 78° East 499 574 37,000 -60 Level Albuquerque Center
03:34PM 34.2992 -107.1842 80° East 495 570 36,900  Descending Albuquerque Center
03:35PM 34.3225 -107.0394 79° East 485 558 37,000  Climbing Albuquerque Center
03:36PM 34.3500 -106.8442 80° East 491 565 37,000  Level Albuquerque Center
03:37PM 34.3736 -106.6844 80° East 489 563 37,000  Level Albuquerque Center
03:38PM 34.3972 -106.5231 80° East 489 563 37,000  Level Albuquerque Center
03:39PM 34.4203 -106.3606 80° East 492 566 37,000  Level Albuquerque Center
03:40PM 34.4447 -106.1933 80° East 489 563 37,000  Level Albuquerque Center
03:41PM 34.4675 -106.0306 80° East 486 559 37,000  Level Albuquerque Center
03:42PM 34.4897 -105.8667 81° East 489 563 37,000  Level Albuquerque Center
03:43PM 34.5175 -105.6733 80° East 494 568 37,000  Level Albuquerque Center
03:44PM 34.5411 -105.5042 80° East 502 578 37,000  Level Albuquerque Center
03:45PM 34.5644 -105.3356 80° East 504 580 37,000  Level Albuquerque Center
03:46PM 34.5867 -105.1678 81° East 501 577 37,000  Level Albuquerque Center
03:47PM 34.6086 -105.0008 81° East 499 574 37,000  Level Albuquerque Center
03:48PM 34.6311 -104.8331 81° East 500 575 37,000  Level Albuquerque Center
03:49PM 34.6533 -104.6664 81° East 499 574 37,000 120 Level Albuquerque Center
03:50PM 34.6794 -104.4739 81° East 495 570 37,300 600 Climbing Albuquerque Center
03:51PM 34.7011 -104.3028 81° East 505 581 38,300 780 Climbing Albuquerque Center
03:52PM 34.7211 -104.1342 82° East 505 581 39,000 300 Climbing Albuquerque Center
03:53PM 34.7428 -103.9661 81° East 503 579 39,000  Level Albuquerque Center
03:54PM 34.7633 -103.7969 82° East 504 580 39,000  Level Albuquerque Center
03:55PM 34.7839 -103.6281 82° East 504 580 39,000  Level Albuquerque Center
03:56PM 34.8047 -103.4581 81° East 505 581 39,000  Level Albuquerque Center
03:57PM 34.8253 -103.2867 82° East 508 585 39,000  Level Albuquerque Center
03:58PM 34.8489 -103.0869 82° East 508 585 39,000  Level Albuquerque Center
03:59PM 34.8689 -102.9158 82° East 509 586 39,000  Level Albuquerque Center
04:00PM 34.8775 -102.7450 86° East 503 579 39,000  Level Albuquerque Center
04:02PM 34.8797 -102.5808 89° East 499 574 39,000  Level Albuquerque Center
04:03PM 34.8847 -102.4144 88° East 496 571 39,000  Level Albuquerque Center
04:04PM 34.8872 -102.2478 89° East 495 570 39,000  Level Albuquerque Center
04:05PM 34.8919 -102.0494 88° East 494 568 39,000  Level Albuquerque Center
04:06PM 34.8933 -101.8853 89° East 492 566 39,000  Level Albuquerque Center
04:07PM 34.8969 -101.7203 88° East 493 567 39,000  Level Albuquerque Center
04:08PM 34.8989 -101.5528 89° East 499 574 39,000  Level Albuquerque Center
04:09PM 34.9014 -101.3867 89° East 499 574 39,000  Level Albuquerque Center
04:10PM 34.9047 -101.2200 89° East 497 572 39,000  Level Albuquerque Center
04:11PM 34.9067 -101.0192 89° East 498 573 39,000  Level Albuquerque Center
04:12PM 34.9081 -100.8517 89° East 498 573 39,000  Level Albuquerque Center
04:13PM 34.9097 -100.6833 89° East 499 574 39,000  Level Albuquerque Center
04:14PM 34.9114 -100.5156 89° East 498 573 39,000  Level Albuquerque Center
04:15PM 34.9117 -100.3292 90° East 498 573 39,000  Level Albuquerque Center
04:16PM 34.9139 -100.1611 89° East 497 572 39,000  Level Albuquerque Center
04:17PM 34.9128 -99.9933 90° East 496 571 39,000  Level Albuquerque Center
04:18PM 34.9139 -99.8258 89° East 495 570 39,000  Level Albuquerque Center
04:19PM 34.9139 -99.6606 90° East 491 565 39,000  Level Albuquerque Center
04:20PM 34.9111 -99.4972 91° East 488 562 39,000  Level Fort Worth Center
04:21PM 34.9117 -99.3328 90° East 488 562 39,000  Level Fort Worth Center
04:22PM 34.9100 -99.1681 91° East 488 562 39,000  Level Fort Worth Center
04:23PM 34.9100 -99.0011 90° East 488 562 39,000  Level Fort Worth Center
04:24PM 34.9081 -98.8364 91° East 488 562 39,000  Level Fort Worth Center
04:25PM 34.9056 -98.6744 91° East 483 556 39,000  Level Fort Worth Center
04:26PM 34.9050 -98.5097 90° East 478 550 39,000  Level Fort Worth Center
04:27PM 34.9022 -98.3503 91° East 472 543 39,000  Level Fort Worth Center
04:28PM 34.9011 -98.1858 90° East 478 550 39,000  Level Fort Worth Center
04:29PM 34.8978 -98.0186 91° East 478 550 39,000  Level Fort Worth Center
04:30PM 34.8944 -97.8539 91° East 478 550 39,000  Level Fort Worth Center
04:31PM 34.8928 -97.6894 91° East 478 550 39,000  Level Fort Worth Center
04:32PM 34.8889 -97.5022 91° East 491 565 39,000  Level Fort Worth Center
04:33PM 34.8869 -97.3325 91° East 496 571 39,000  Level Fort Worth Center
04:34PM 34.8803 -97.1606 93° East 496 571 39,000  Level Fort Worth Center
04:35PM 34.8758 -96.9933 92° East 496 571 39,000  Level Fort Worth Center
04:36PM 34.8750 -96.8264 90° East 496 571 39,000  Level Fort Worth Center
04:37PM 34.8700 -96.6569 92° East 496 571 39,000  Level Fort Worth Center
04:38PM 34.8669 -96.4900 91° East 496 571 39,000  Level Fort Worth Center
04:39PM 34.8614 -96.3203 92° East 496 571 39,000  Level Fort Worth Center
04:40PM 34.8556 -96.1533 92° East 496 571 39,000  Level Fort Worth Center
04:41PM 34.8517 -95.9864 92° East 496 571 39,000  Level Fort Worth Center
04:42PM 34.8456 -95.8197 93° East 496 571 39,000  Level Fort Worth Center
04:44PM 34.8353 -95.4322 92° East 506 582 39,000  Level Memphis Center
04:45PM 34.8294 -95.2625 92° East 495 570 39,000  Level Memphis Center
04:46PM 34.8233 -95.0978 93° East 495 570 39,000  Level Memphis Center
04:47PM 34.8172 -94.9306 93° East 495 570 39,000  Level Memphis Center
04:48PM 34.8086 -94.7656 94° East 495 570 39,000 -1,260 Level Memphis Center
04:49PM 34.8039 -94.5958 92° East 501 577 36,600 -2,520 Descending Memphis Center
04:50PM 34.7972 -94.4261 93° East 501 577 34,000 -2,640 Descending Memphis Center
04:51PM 34.7883 -94.2436 93° East 504 580 31,400 -2,400 Descending Memphis Center
04:52PM 34.7786 -94.0839 94° East 486 559 29,300 -2,100 Descending Memphis Center
04:53PM 34.7725 -93.9344 93° East 471 542 27,300 -1,980 Descending Memphis Center
04:54PM 34.7664 -93.7850 93° East 456 525 25,400 -1,920 Descending Memphis Center
04:55PM 34.7597 -93.6458 93° East 435 501 23,500 -1,920 Descending Memphis Center
04:56PM 34.7506 -93.5089 95° East 417 480 21,700 -1,740 Descending Memphis Center
04:57PM 34.7456 -93.3750 93° East 398 458 20,000 -1,800 Descending Memphis Center
04:58PM 34.7381 -93.2483 94° East 385 443 18,200 -1,800 Descending Memphis Center
04:59PM 34.7306 -93.1242 94° East 379 436 16,500 -1,740 Descending Memphis Center
05:00PM 34.7247 -93.0053 93° East 372 428 14,800 -1,620 Descending Memphis Center
05:02PM 34.7150 -92.8761 95° East 354 407 13,100 -1,500 Descending Memphis Center
05:03PM 34.7089 -92.7597 94° East 333 383 11,600 -1,380 Descending Memphis Center
05:03PM 34.7192 -92.6614 83° East 340 391 10,500 -1,500 Descending Memphis Center
05:04PM 34.7336 -92.5556 81° East 325 374 8,900 -1,680 Descending Memphis Center
05:05PM 34.7478 -92.4550 80° East 309 356 7,200 -1,500 Descending Memphis Center
05:06PM 34.7639 -92.3592 78° East 298 343 6,000 -1,320 Descending Memphis Center
05:07PM 34.7822 -92.2661 76° East 292 336 4,600 -1,020 Descending Memphis Center
05:08PM 34.8394 -92.2042 42° Northeast 263 303 4,000 -780 Descending Memphis Center
05:09PM 34.8361 -92.1333 93° East 213 245 3,100 -960 Descending Memphis Center
05:10PM 34.7839 -92.1372 183° South 113 130 2,200 -1,140 Descending Memphis Center
05:12PM 34.7478 -92.1844 227° Southwest 131 151 700 -600 Descending Memphis Center
05:12PM 34.7314 -92.1714 147° Southeast 102 117 1,000 360 Climbing Memphis Center
05:16PM 34.7112 -92.2112 321° Northwest  Level FlightAware Approximate
05:23PM 34.7167 -92.2167 321° Northwest  Level FlightAware Approximate